sensor_id;sensor_type;location;lat;lon;timestamp;P1;durP1;ratioP1;P2;durP2;ratioP2
47155;SDS011;32908;52.344;16.858;2023-04-01T00:01:54;7.00;;;5.70;;
47155;SDS011;32908;52.344;16.858;2023-04-01T00:04:25;8.50;;;6.20;;
47155;SDS011;32908;52.344;16.858;2023-04-01T00:06:56;7.80;;;6.00;;
47155;SDS011;32908;52.344;16.858;2023-04-01T00:09:29;9.00;;;7.50;;
47155;SDS011;32908;52.344;16.858;2023-04-01T00:12:03;10.40;;;8.20;;
47155;SDS011;32908;52.344;16.858;2023-04-01T00:14:35;10.80;;;8.50;;
47155;SDS011;32908;52.344;16.858;2023-04-01T00:17:07;11.00;;;8.60;;
47155;SDS011;32908;52.344;16.858;2023-04-01T00:19:39;13.40;;;9.40;;
47155;SDS011;32908;52.344;16.858;2023-04-01T00:22:11;12.40;;;10.20;;
47155;SDS011;32908;52.344;16.858;2023-04-01T00:24:42;13.00;;;10.10;;
47155;SDS011;32908;52.344;16.858;2023-04-01T00:27:14;17.50;;;12.00;;
47155;SDS011;32908;52.344;16.858;2023-04-01T00:29:47;16.00;;;12.70;;
47155;SDS011;32908;52.344;16.858;2023-04-01T00:32:19;16.90;;;12.90;;
47155;SDS011;32908;52.344;16.858;2023-04-01T00:34:51;17.40;;;13.70;;
47155;SDS011;32908;52.344;16.858;2023-04-01T00:37:22;16.00;;;13.00;;
47155;SDS011;32908;52.344;16.858;2023-04-01T00:39:54;15.30;;;11.80;;
47155;SDS011;32908;52.344;16.858;2023-04-01T00:42:25;19.50;;;13.80;;
47155;SDS011;32908;52.344;16.858;2023-04-01T00:44:57;20.20;;;13.00;;
47155;SDS011;32908;52.344;16.858;2023-04-01T00:47:48;20.60;;;14.00;;
47155;SDS011;32908;52.344;16.858;2023-04-01T00:50:19;19.80;;;12.80;;
47155;SDS011;32908;52.344;16.858;2023-04-01T00:52:50;19.80;;;13.50;;
47155;SDS011;32908;52.344;16.858;2023-04-01T00:55:22;21.90;;;13.80;;
47155;SDS011;32908;52.344;16.858;2023-04-01T00:57:53;17.90;;;13.70;;
47155;SDS011;32908;52.344;16.858;2023-04-01T01:00:26;19.30;;;12.70;;
47155;SDS011;32908;52.344;16.858;2023-04-01T01:02:59;22.90;;;16.60;;
47155;SDS011;32908;52.344;16.858;2023-04-01T01:05:33;28.40;;;18.80;;
47155;SDS011;32908;52.344;16.858;2023-04-01T01:08:16;41.90;;;25.10;;
47155;SDS011;32908;52.344;16.858;2023-04-01T01:10:50;35.10;;;21.40;;
47155;SDS011;32908;52.344;16.858;2023-04-01T01:13:23;41.00;;;18.70;;
47155;SDS011;32908;52.344;16.858;2023-04-01T01:15:59;42.00;;;20.60;;
47155;SDS011;32908;52.344;16.858;2023-04-01T01:18:33;35.10;;;17.50;;
47155;SDS011;32908;52.344;16.858;2023-04-01T01:24:09;16.50;;;12.10;;
47155;SDS011;32908;52.344;16.858;2023-04-01T01:26:50;17.10;;;13.10;;
47155;SDS011;32908;52.344;16.858;2023-04-01T01:32:58;17.30;;;12.10;;
47155;SDS011;32908;52.344;16.858;2023-04-01T01:35:36;15.20;;;11.40;;
47155;SDS011;32908;52.344;16.858;2023-04-01T01:38:11;15.20;;;12.40;;
47155;SDS011;32908;52.344;16.858;2023-04-01T01:40:46;25.00;;;18.40;;
47155;SDS011;32908;52.344;16.858;2023-04-01T01:43:22;35.90;;;23.00;;
47155;SDS011;32908;52.344;16.858;2023-04-01T01:45:55;24.30;;;16.20;;
47155;SDS011;32908;52.344;16.858;2023-04-01T01:48:29;20.40;;;14.30;;
47155;SDS011;32908;52.344;16.858;2023-04-01T01:51:00;17.50;;;13.20;;
47155;SDS011;32908;52.344;16.858;2023-04-01T01:53:32;18.90;;;13.60;;
47155;SDS011;32908;52.344;16.858;2023-04-01T01:56:05;15.10;;;11.90;;
47155;SDS011;32908;52.344;16.858;2023-04-01T01:58:37;15.40;;;12.50;;
47155;SDS011;32908;52.344;16.858;2023-04-01T02:01:11;15.70;;;12.10;;
47155;SDS011;32908;52.344;16.858;2023-04-01T02:03:43;15.80;;;12.10;;
47155;SDS011;32908;52.344;16.858;2023-04-01T02:06:16;16.30;;;12.20;;
47155;SDS011;32908;52.344;16.858;2023-04-01T02:08:50;14.60;;;11.60;;
47155;SDS011;32908;52.344;16.858;2023-04-01T02:11:24;15.90;;;11.90;;
47155;SDS011;32908;52.344;16.858;2023-04-01T02:14:00;14.00;;;11.40;;
47155;SDS011;32908;52.344;16.858;2023-04-01T02:16:36;14.80;;;10.90;;
47155;SDS011;32908;52.344;16.858;2023-04-01T02:19:08;16.00;;;11.80;;
47155;SDS011;32908;52.344;16.858;2023-04-01T02:21:40;14.70;;;10.90;;
47155;SDS011;32908;52.344;16.858;2023-04-01T02:24:13;18.20;;;12.50;;
47155;SDS011;32908;52.344;16.858;2023-04-01T02:26:45;17.30;;;12.00;;
47155;SDS011;32908;52.344;16.858;2023-04-01T02:29:17;17.10;;;12.20;;
47155;SDS011;32908;52.344;16.858;2023-04-01T02:31:51;17.60;;;12.60;;
47155;SDS011;32908;52.344;16.858;2023-04-01T02:34:23;15.90;;;12.60;;
47155;SDS011;32908;52.344;16.858;2023-04-01T02:36:55;15.30;;;12.70;;
47155;SDS011;32908;52.344;16.858;2023-04-01T02:39:27;15.90;;;11.80;;
47155;SDS011;32908;52.344;16.858;2023-04-01T02:41:59;17.50;;;12.80;;
47155;SDS011;32908;52.344;16.858;2023-04-01T02:44:30;17.30;;;12.70;;
47155;SDS011;32908;52.344;16.858;2023-04-01T02:47:01;16.10;;;12.80;;
47155;SDS011;32908;52.344;16.858;2023-04-01T02:49:32;16.50;;;13.40;;
47155;SDS011;32908;52.344;16.858;2023-04-01T02:52:04;15.60;;;12.40;;
47155;SDS011;32908;52.344;16.858;2023-04-01T02:54:35;16.70;;;13.20;;
47155;SDS011;32908;52.344;16.858;2023-04-01T02:57:08;16.90;;;13.60;;
47155;SDS011;32908;52.344;16.858;2023-04-01T02:59:39;16.70;;;13.20;;
47155;SDS011;32908;52.344;16.858;2023-04-01T03:02:10;15.80;;;12.60;;
47155;SDS011;32908;52.344;16.858;2023-04-01T03:04:42;15.50;;;12.40;;
47155;SDS011;32908;52.344;16.858;2023-04-01T03:07:14;14.30;;;12.50;;
47155;SDS011;32908;52.344;16.858;2023-04-01T03:09:45;16.70;;;12.20;;
47155;SDS011;32908;52.344;16.858;2023-04-01T03:12:17;14.10;;;12.40;;
47155;SDS011;32908;52.344;16.858;2023-04-01T03:14:49;17.60;;;12.40;;
47155;SDS011;32908;52.344;16.858;2023-04-01T03:17:20;17.10;;;13.80;;
47155;SDS011;32908;52.344;16.858;2023-04-01T03:19:50;20.10;;;13.90;;
47155;SDS011;32908;52.344;16.858;2023-04-01T03:22:22;22.30;;;14.60;;
47155;SDS011;32908;52.344;16.858;2023-04-01T03:24:53;21.70;;;14.20;;
47155;SDS011;32908;52.344;16.858;2023-04-01T03:27:25;17.40;;;12.90;;
47155;SDS011;32908;52.344;16.858;2023-04-01T03:29:57;16.50;;;13.50;;
47155;SDS011;32908;52.344;16.858;2023-04-01T03:32:28;17.20;;;12.60;;
47155;SDS011;32908;52.344;16.858;2023-04-01T03:34:59;17.60;;;13.20;;
47155;SDS011;32908;52.344;16.858;2023-04-01T03:37:30;16.40;;;13.40;;
47155;SDS011;32908;52.344;16.858;2023-04-01T03:40:02;16.20;;;13.10;;
47155;SDS011;32908;52.344;16.858;2023-04-01T03:42:34;17.30;;;13.50;;
47155;SDS011;32908;52.344;16.858;2023-04-01T03:45:06;16.60;;;13.50;;
47155;SDS011;32908;52.344;16.858;2023-04-01T03:47:38;18.20;;;14.00;;
47155;SDS011;32908;52.344;16.858;2023-04-01T03:50:10;18.40;;;14.70;;
47155;SDS011;32908;52.344;16.858;2023-04-01T03:52:42;21.70;;;14.90;;
47155;SDS011;32908;52.344;16.858;2023-04-01T03:55:14;19.80;;;14.30;;
47155;SDS011;32908;52.344;16.858;2023-04-01T03:57:46;18.30;;;14.30;;
47155;SDS011;32908;52.344;16.858;2023-04-01T04:00:17;17.50;;;13.70;;
47155;SDS011;32908;52.344;16.858;2023-04-01T04:02:49;18.20;;;14.00;;
47155;SDS011;32908;52.344;16.858;2023-04-01T04:05:20;20.70;;;14.60;;
47155;SDS011;32908;52.344;16.858;2023-04-01T04:07:52;18.90;;;14.30;;
47155;SDS011;32908;52.344;16.858;2023-04-01T04:10:24;20.30;;;14.70;;
47155;SDS011;32908;52.344;16.858;2023-04-01T04:12:57;16.40;;;12.80;;
47155;SDS011;32908;52.344;16.858;2023-04-01T04:15:28;13.20;;;10.80;;
47155;SDS011;32908;52.344;16.858;2023-04-01T04:18:00;14.50;;;11.40;;
47155;SDS011;32908;52.344;16.858;2023-04-01T04:20:32;14.20;;;11.40;;
47155;SDS011;32908;52.344;16.858;2023-04-01T04:23:04;14.80;;;11.00;;
47155;SDS011;32908;52.344;16.858;2023-04-01T04:25:35;15.90;;;11.50;;
47155;SDS011;32908;52.344;16.858;2023-04-01T04:28:06;12.70;;;11.00;;
47155;SDS011;32908;52.344;16.858;2023-04-01T04:30:37;12.90;;;10.60;;
47155;SDS011;32908;52.344;16.858;2023-04-01T04:33:09;13.80;;;10.40;;
47155;SDS011;32908;52.344;16.858;2023-04-01T04:35:40;12.70;;;10.90;;
47155;SDS011;32908;52.344;16.858;2023-04-01T04:38:12;14.20;;;10.70;;
47155;SDS011;32908;52.344;16.858;2023-04-01T04:40:43;15.10;;;9.90;;
47155;SDS011;32908;52.344;16.858;2023-04-01T04:43:16;14.10;;;10.00;;
47155;SDS011;32908;52.344;16.858;2023-04-01T04:45:48;12.00;;;9.60;;
47155;SDS011;32908;52.344;16.858;2023-04-01T04:48:20;14.10;;;9.90;;
47155;SDS011;32908;52.344;16.858;2023-04-01T04:50:50;10.40;;;8.40;;
47155;SDS011;32908;52.344;16.858;2023-04-01T04:53:22;11.00;;;7.90;;
47155;SDS011;32908;52.344;16.858;2023-04-01T04:55:54;10.60;;;8.30;;
47155;SDS011;32908;52.344;16.858;2023-04-01T04:58:25;11.00;;;8.10;;
47155;SDS011;32908;52.344;16.858;2023-04-01T05:00:56;9.80;;;7.50;;
47155;SDS011;32908;52.344;16.858;2023-04-01T05:03:28;9.20;;;7.60;;
47155;SDS011;32908;52.344;16.858;2023-04-01T05:06:01;9.00;;;7.10;;
47155;SDS011;32908;52.344;16.858;2023-04-01T05:08:32;9.40;;;6.70;;
47155;SDS011;32908;52.344;16.858;2023-04-01T05:11:06;9.00;;;7.20;;
47155;SDS011;32908;52.344;16.858;2023-04-01T05:13:38;10.00;;;7.10;;
47155;SDS011;32908;52.344;16.858;2023-04-01T05:16:10;11.60;;;7.10;;
47155;SDS011;32908;52.344;16.858;2023-04-01T05:18:42;10.40;;;7.40;;
47155;SDS011;32908;52.344;16.858;2023-04-01T05:21:13;11.00;;;7.40;;
47155;SDS011;32908;52.344;16.858;2023-04-01T05:23:45;9.70;;;6.90;;
47155;SDS011;32908;52.344;16.858;2023-04-01T05:26:16;9.10;;;7.10;;
47155;SDS011;32908;52.344;16.858;2023-04-01T05:28:48;9.90;;;7.00;;
47155;SDS011;32908;52.344;16.858;2023-04-01T05:31:20;10.40;;;6.90;;
47155;SDS011;32908;52.344;16.858;2023-04-01T05:33:52;10.30;;;7.10;;
47155;SDS011;32908;52.344;16.858;2023-04-01T05:36:23;10.80;;;7.40;;
47155;SDS011;32908;52.344;16.858;2023-04-01T05:38:55;10.00;;;6.50;;
47155;SDS011;32908;52.344;16.858;2023-04-01T05:41:27;10.60;;;6.70;;
47155;SDS011;32908;52.344;16.858;2023-04-01T05:43:59;9.10;;;6.70;;
47155;SDS011;32908;52.344;16.858;2023-04-01T05:46:30;7.60;;;6.60;;
47155;SDS011;32908;52.344;16.858;2023-04-01T05:49:02;9.90;;;6.50;;
47155;SDS011;32908;52.344;16.858;2023-04-01T05:51:33;8.10;;;6.70;;
47155;SDS011;32908;52.344;16.858;2023-04-01T05:54:05;8.50;;;6.80;;
47155;SDS011;32908;52.344;16.858;2023-04-01T05:56:36;11.30;;;7.10;;
47155;SDS011;32908;52.344;16.858;2023-04-01T05:59:09;8.80;;;6.90;;
47155;SDS011;32908;52.344;16.858;2023-04-01T06:01:41;9.30;;;6.40;;
47155;SDS011;32908;52.344;16.858;2023-04-01T06:04:14;8.60;;;6.70;;
47155;SDS011;32908;52.344;16.858;2023-04-01T06:06:46;8.50;;;6.00;;
47155;SDS011;32908;52.344;16.858;2023-04-01T06:09:21;10.40;;;7.10;;
47155;SDS011;32908;52.344;16.858;2023-04-01T06:12:08;9.00;;;7.10;;
47155;SDS011;32908;52.344;16.858;2023-04-01T06:15:09;9.00;;;6.70;;
47155;SDS011;32908;52.344;16.858;2023-04-01T06:18:09;14.50;;;11.90;;
47155;SDS011;32908;52.344;16.858;2023-04-01T06:20:59;7.40;;;6.20;;
47155;SDS011;32908;52.344;16.858;2023-04-01T06:23:35;9.00;;;6.20;;
47155;SDS011;32908;52.344;16.858;2023-04-01T06:29:23;7.90;;;6.20;;
47155;SDS011;32908;52.344;16.858;2023-04-01T06:32:12;8.50;;;5.80;;
47155;SDS011;32908;52.344;16.858;2023-04-01T06:34:53;8.30;;;5.70;;
47155;SDS011;32908;52.344;16.858;2023-04-01T06:37:46;8.00;;;6.60;;
47155;SDS011;32908;52.344;16.858;2023-04-01T06:40:42;8.60;;;6.20;;
47155;SDS011;32908;52.344;16.858;2023-04-01T06:45:53;6.70;;;5.90;;
47155;SDS011;32908;52.344;16.858;2023-04-01T06:48:33;8.90;;;6.70;;
47155;SDS011;32908;52.344;16.858;2023-04-01T06:51:15;8.30;;;7.10;;
47155;SDS011;32908;52.344;16.858;2023-04-01T06:53:52;9.80;;;8.80;;
47155;SDS011;32908;52.344;16.858;2023-04-01T06:56:26;10.40;;;8.60;;
47155;SDS011;32908;52.344;16.858;2023-04-01T06:58:58;9.50;;;8.20;;
47155;SDS011;32908;52.344;16.858;2023-04-01T07:01:32;8.90;;;8.00;;
47155;SDS011;32908;52.344;16.858;2023-04-01T07:04:09;10.00;;;8.40;;
47155;SDS011;32908;52.344;16.858;2023-04-01T07:06:45;13.10;;;10.60;;
47155;SDS011;32908;52.344;16.858;2023-04-01T07:09:20;13.00;;;10.50;;
47155;SDS011;32908;52.344;16.858;2023-04-01T07:11:54;12.50;;;9.10;;
47155;SDS011;32908;52.344;16.858;2023-04-01T07:14:30;14.90;;;9.70;;
47155;SDS011;32908;52.344;16.858;2023-04-01T07:17:06;10.60;;;8.80;;
47155;SDS011;32908;52.344;16.858;2023-04-01T07:19:42;11.20;;;9.10;;
47155;SDS011;32908;52.344;16.858;2023-04-01T07:22:20;13.40;;;8.50;;
47155;SDS011;32908;52.344;16.858;2023-04-01T07:24:55;11.70;;;8.90;;
47155;SDS011;32908;52.344;16.858;2023-04-01T07:27:28;11.30;;;9.10;;
47155;SDS011;32908;52.344;16.858;2023-04-01T07:29:59;14.80;;;10.60;;
47155;SDS011;32908;52.344;16.858;2023-04-01T07:32:36;14.70;;;11.00;;
47155;SDS011;32908;52.344;16.858;2023-04-01T07:35:12;14.40;;;9.70;;
47155;SDS011;32908;52.344;16.858;2023-04-01T07:37:52;12.40;;;9.50;;
47155;SDS011;32908;52.344;16.858;2023-04-01T07:40:32;9.10;;;8.00;;
47155;SDS011;32908;52.344;16.858;2023-04-01T07:43:17;10.40;;;7.70;;
47155;SDS011;32908;52.344;16.858;2023-04-01T07:46:01;10.10;;;8.00;;
47155;SDS011;32908;52.344;16.858;2023-04-01T07:48:38;9.50;;;7.70;;
47155;SDS011;32908;52.344;16.858;2023-04-01T07:51:12;10.30;;;8.50;;
47155;SDS011;32908;52.344;16.858;2023-04-01T07:53:49;11.40;;;8.50;;
47155;SDS011;32908;52.344;16.858;2023-04-01T07:56:26;12.20;;;9.00;;
47155;SDS011;32908;52.344;16.858;2023-04-01T07:59:01;12.30;;;8.80;;
47155;SDS011;32908;52.344;16.858;2023-04-01T08:01:39;12.60;;;8.80;;
47155;SDS011;32908;52.344;16.858;2023-04-01T08:04:20;11.50;;;8.20;;
47155;SDS011;32908;52.344;16.858;2023-04-01T08:06:59;9.70;;;7.50;;
47155;SDS011;32908;52.344;16.858;2023-04-01T08:09:38;9.50;;;7.40;;
47155;SDS011;32908;52.344;16.858;2023-04-01T08:12:17;10.30;;;8.10;;
47155;SDS011;32908;52.344;16.858;2023-04-01T08:14:58;14.30;;;8.40;;
47155;SDS011;32908;52.344;16.858;2023-04-01T08:17:35;11.70;;;8.40;;
47155;SDS011;32908;52.344;16.858;2023-04-01T08:20:13;10.20;;;7.30;;
47155;SDS011;32908;52.344;16.858;2023-04-01T08:22:52;11.40;;;8.50;;
47155;SDS011;32908;52.344;16.858;2023-04-01T08:28:03;12.30;;;8.50;;
47155;SDS011;32908;52.344;16.858;2023-04-01T08:30:39;11.50;;;8.50;;
47155;SDS011;32908;52.344;16.858;2023-04-01T08:33:12;10.20;;;7.50;;
47155;SDS011;32908;52.344;16.858;2023-04-01T08:35:48;12.30;;;9.00;;
47155;SDS011;32908;52.344;16.858;2023-04-01T08:38:23;10.30;;;8.10;;
47155;SDS011;32908;52.344;16.858;2023-04-01T08:41:02;9.90;;;6.20;;
47155;SDS011;32908;52.344;16.858;2023-04-01T08:43:49;6.40;;;4.90;;
47155;SDS011;32908;52.344;16.858;2023-04-01T08:46:43;6.40;;;4.80;;
47155;SDS011;32908;52.344;16.858;2023-04-01T08:49:36;6.90;;;5.00;;
47155;SDS011;32908;52.344;16.858;2023-04-01T08:52:34;6.00;;;4.70;;
47155;SDS011;32908;52.344;16.858;2023-04-01T08:55:16;6.50;;;5.10;;
47155;SDS011;32908;52.344;16.858;2023-04-01T08:57:58;7.10;;;5.30;;
47155;SDS011;32908;52.344;16.858;2023-04-01T09:00:37;7.00;;;5.20;;
47155;SDS011;32908;52.344;16.858;2023-04-01T09:03:23;6.70;;;5.50;;
47155;SDS011;32908;52.344;16.858;2023-04-01T09:18:36;7.40;;;6.10;;
47155;SDS011;32908;52.344;16.858;2023-04-01T09:21:35;8.90;;;6.20;;
47155;SDS011;32908;52.344;16.858;2023-04-01T09:24:28;7.60;;;6.00;;
47155;SDS011;32908;52.344;16.858;2023-04-01T09:27:07;9.40;;;6.60;;
47155;SDS011;32908;52.344;16.858;2023-04-01T09:29:51;9.00;;;7.10;;
47155;SDS011;32908;52.344;16.858;2023-04-01T09:32:37;12.20;;;7.40;;
47155;SDS011;32908;52.344;16.858;2023-04-01T09:35:18;11.90;;;8.30;;
47155;SDS011;32908;52.344;16.858;2023-04-01T09:37:57;11.50;;;8.60;;
47155;SDS011;32908;52.344;16.858;2023-04-01T09:40:37;12.00;;;7.80;;
47155;SDS011;32908;52.344;16.858;2023-04-01T09:52:09;12.90;;;8.40;;
47155;SDS011;32908;52.344;16.858;2023-04-01T09:54:55;11.70;;;8.50;;
47155;SDS011;32908;52.344;16.858;2023-04-01T09:57:48;12.30;;;8.90;;
47155;SDS011;32908;52.344;16.858;2023-04-01T10:06:57;14.80;;;10.80;;
47155;SDS011;32908;52.344;16.858;2023-04-01T10:13:21;15.30;;;11.40;;
47155;SDS011;32908;52.344;16.858;2023-04-01T10:31:20;23.70;;;13.70;;
47155;SDS011;32908;52.344;16.858;2023-04-01T10:37:09;25.80;;;14.60;;
47155;SDS011;32908;52.344;16.858;2023-04-01T10:40:02;18.40;;;12.30;;
47155;SDS011;32908;52.344;16.858;2023-04-01T10:43:09;19.10;;;11.10;;
47155;SDS011;32908;52.344;16.858;2023-04-01T10:46:19;17.90;;;11.00;;
47155;SDS011;32908;52.344;16.858;2023-04-01T10:49:20;16.90;;;11.00;;
47155;SDS011;32908;52.344;16.858;2023-04-01T10:55:22;16.40;;;10.90;;
47155;SDS011;32908;52.344;16.858;2023-04-01T11:01:19;22.40;;;14.90;;
47155;SDS011;32908;52.344;16.858;2023-04-01T11:04:09;23.40;;;14.80;;
47155;SDS011;32908;52.344;16.858;2023-04-01T11:10:38;23.10;;;14.80;;
47155;SDS011;32908;52.344;16.858;2023-04-01T11:13:38;20.20;;;12.80;;
47155;SDS011;32908;52.344;16.858;2023-04-01T11:16:27;24.00;;;14.30;;
47155;SDS011;32908;52.344;16.858;2023-04-01T11:22:10;28.80;;;15.30;;
47155;SDS011;32908;52.344;16.858;2023-04-01T11:25:13;24.00;;;14.50;;
47155;SDS011;32908;52.344;16.858;2023-04-01T11:28:00;20.20;;;13.00;;
47155;SDS011;32908;52.344;16.858;2023-04-01T11:30:55;32.00;;;17.80;;
47155;SDS011;32908;52.344;16.858;2023-04-01T11:33:33;31.30;;;18.10;;
47155;SDS011;32908;52.344;16.858;2023-04-01T11:36:16;26.00;;;17.40;;
47155;SDS011;32908;52.344;16.858;2023-04-01T11:39:00;26.50;;;15.20;;
47155;SDS011;32908;52.344;16.858;2023-04-01T11:41:43;24.70;;;15.70;;
47155;SDS011;32908;52.344;16.858;2023-04-01T11:44:19;21.40;;;14.20;;
47155;SDS011;32908;52.344;16.858;2023-04-01T11:47:03;24.10;;;14.20;;
47155;SDS011;32908;52.344;16.858;2023-04-01T11:49:53;22.90;;;14.60;;
47155;SDS011;32908;52.344;16.858;2023-04-01T11:52:37;19.20;;;13.60;;
47155;SDS011;32908;52.344;16.858;2023-04-01T11:55:22;24.30;;;15.00;;
47155;SDS011;32908;52.344;16.858;2023-04-01T11:58:12;19.30;;;13.10;;
47155;SDS011;32908;52.344;16.858;2023-04-01T12:01:16;19.70;;;13.20;;
47155;SDS011;32908;52.344;16.858;2023-04-01T12:04:04;23.20;;;14.70;;
47155;SDS011;32908;52.344;16.858;2023-04-01T12:06:46;21.60;;;13.10;;
47155;SDS011;32908;52.344;16.858;2023-04-01T12:09:21;18.10;;;12.90;;
47155;SDS011;32908;52.344;16.858;2023-04-01T12:12:02;16.50;;;12.60;;
47155;SDS011;32908;52.344;16.858;2023-04-01T12:14:43;18.60;;;12.80;;
47155;SDS011;32908;52.344;16.858;2023-04-01T12:17:24;20.10;;;14.30;;
47155;SDS011;32908;52.344;16.858;2023-04-01T12:20:01;17.70;;;13.00;;
47155;SDS011;32908;52.344;16.858;2023-04-01T12:22:53;21.70;;;14.60;;
47155;SDS011;32908;52.344;16.858;2023-04-01T12:25:33;21.90;;;14.50;;
47155;SDS011;32908;52.344;16.858;2023-04-01T12:28:15;22.60;;;14.60;;
47155;SDS011;32908;52.344;16.858;2023-04-01T12:31:04;20.30;;;14.50;;
47155;SDS011;32908;52.344;16.858;2023-04-01T13:29:57;17.30;;;12.30;;
47155;SDS011;32908;52.344;16.858;2023-04-01T13:32:36;15.40;;;11.30;;
47155;SDS011;32908;52.344;16.858;2023-04-01T13:35:16;15.30;;;10.20;;
47155;SDS011;32908;52.344;16.858;2023-04-01T13:38:02;13.90;;;10.80;;
47155;SDS011;32908;52.344;16.858;2023-04-01T13:40:51;15.60;;;10.40;;
47155;SDS011;32908;52.344;16.858;2023-04-01T13:43:26;12.50;;;9.80;;
47155;SDS011;32908;52.344;16.858;2023-04-01T13:46:07;10.70;;;9.50;;
47155;SDS011;32908;52.344;16.858;2023-04-01T13:52:03;13.20;;;10.40;;
47155;SDS011;32908;52.344;16.858;2023-04-01T13:58:00;14.70;;;12.30;;
47155;SDS011;32908;52.344;16.858;2023-04-01T14:00:40;12.50;;;9.40;;
47155;SDS011;32908;52.344;16.858;2023-04-01T14:03:18;9.70;;;8.20;;
47155;SDS011;32908;52.344;16.858;2023-04-01T14:08:58;9.00;;;7.40;;
47155;SDS011;32908;52.344;16.858;2023-04-01T14:11:39;9.70;;;8.40;;
47155;SDS011;32908;52.344;16.858;2023-04-01T14:14:21;9.20;;;8.00;;
47155;SDS011;32908;52.344;16.858;2023-04-01T14:17:03;9.20;;;8.00;;
47155;SDS011;32908;52.344;16.858;2023-04-01T14:19:49;8.30;;;7.30;;
47155;SDS011;32908;52.344;16.858;2023-04-01T14:22:30;8.90;;;7.50;;
47155;SDS011;32908;52.344;16.858;2023-04-01T14:25:16;9.00;;;7.60;;
47155;SDS011;32908;52.344;16.858;2023-04-01T14:27:59;7.50;;;5.70;;
47155;SDS011;32908;52.344;16.858;2023-04-01T14:30:50;8.00;;;6.50;;
47155;SDS011;32908;52.344;16.858;2023-04-01T14:33:33;9.30;;;7.50;;
47155;SDS011;32908;52.344;16.858;2023-04-01T14:36:17;12.80;;;8.30;;
47155;SDS011;32908;52.344;16.858;2023-04-01T14:42:11;10.60;;;8.00;;
47155;SDS011;32908;52.344;16.858;2023-04-01T14:45:00;7.70;;;6.70;;
47155;SDS011;32908;52.344;16.858;2023-04-01T14:47:46;8.00;;;7.20;;
47155;SDS011;32908;52.344;16.858;2023-04-01T14:50:20;8.80;;;7.10;;
47155;SDS011;32908;52.344;16.858;2023-04-01T14:52:57;8.70;;;7.50;;
47155;SDS011;32908;52.344;16.858;2023-04-01T14:55:47;7.40;;;6.20;;
47155;SDS011;32908;52.344;16.858;2023-04-01T14:58:20;9.50;;;7.80;;
47155;SDS011;32908;52.344;16.858;2023-04-01T15:00:59;14.30;;;10.10;;
47155;SDS011;32908;52.344;16.858;2023-04-01T15:03:45;9.00;;;7.50;;
47155;SDS011;32908;52.344;16.858;2023-04-01T15:09:26;10.90;;;7.90;;
47155;SDS011;32908;52.344;16.858;2023-04-01T15:12:03;10.50;;;7.50;;
47155;SDS011;32908;52.344;16.858;2023-04-01T15:14:52;9.40;;;8.40;;
47155;SDS011;32908;52.344;16.858;2023-04-01T15:17:37;11.20;;;8.80;;
47155;SDS011;32908;52.344;16.858;2023-04-01T15:23:17;11.40;;;8.40;;
47155;SDS011;32908;52.344;16.858;2023-04-01T15:25:59;16.40;;;12.00;;
47155;SDS011;32908;52.344;16.858;2023-04-01T15:28:41;12.20;;;9.80;;
47155;SDS011;32908;52.344;16.858;2023-04-01T15:31:21;12.30;;;9.50;;
47155;SDS011;32908;52.344;16.858;2023-04-01T15:33:59;13.00;;;9.00;;
47155;SDS011;32908;52.344;16.858;2023-04-01T15:36:40;15.90;;;11.70;;
47155;SDS011;32908;52.344;16.858;2023-04-01T15:39:14;13.80;;;10.20;;
47155;SDS011;32908;52.344;16.858;2023-04-01T15:42:04;12.30;;;9.80;;
47155;SDS011;32908;52.344;16.858;2023-04-01T15:44:46;13.40;;;11.20;;
47155;SDS011;32908;52.344;16.858;2023-04-01T15:47:37;13.20;;;11.50;;
47155;SDS011;32908;52.344;16.858;2023-04-01T15:53:23;10.20;;;8.10;;
47155;SDS011;32908;52.344;16.858;2023-04-01T15:56:06;11.10;;;9.20;;
47155;SDS011;32908;52.344;16.858;2023-04-01T15:58:48;9.60;;;7.90;;
47155;SDS011;32908;52.344;16.858;2023-04-01T16:01:29;9.10;;;7.50;;
47155;SDS011;32908;52.344;16.858;2023-04-01T16:04:12;8.20;;;7.30;;
47155;SDS011;32908;52.344;16.858;2023-04-01T16:07:01;10.30;;;8.80;;
47155;SDS011;32908;52.344;16.858;2023-04-01T16:09:42;8.30;;;7.00;;
47155;SDS011;32908;52.344;16.858;2023-04-01T16:12:19;11.90;;;8.00;;
47155;SDS011;32908;52.344;16.858;2023-04-01T16:15:06;7.80;;;6.50;;
47155;SDS011;32908;52.344;16.858;2023-04-01T16:17:51;9.10;;;7.10;;
47155;SDS011;32908;52.344;16.858;2023-04-01T16:20:49;8.30;;;6.80;;
47155;SDS011;32908;52.344;16.858;2023-04-01T16:23:22;10.10;;;6.90;;
47155;SDS011;32908;52.344;16.858;2023-04-01T16:25:59;9.50;;;7.50;;
47155;SDS011;32908;52.344;16.858;2023-04-01T17:30:21;12.90;;;10.20;;
47155;SDS011;32908;52.344;16.858;2023-04-01T17:32:57;11.50;;;9.20;;
47155;SDS011;32908;52.344;16.858;2023-04-01T17:38:30;9.10;;;7.30;;
47155;SDS011;32908;52.344;16.858;2023-04-01T17:41:11;11.80;;;9.70;;
47155;SDS011;32908;52.344;16.858;2023-04-01T17:43:50;12.30;;;8.80;;
47155;SDS011;32908;52.344;16.858;2023-04-01T17:46:30;10.00;;;7.90;;
47155;SDS011;32908;52.344;16.858;2023-04-01T17:49:23;9.50;;;7.80;;
47155;SDS011;32908;52.344;16.858;2023-04-01T17:51:58;10.40;;;7.60;;
47155;SDS011;32908;52.344;16.858;2023-04-01T17:54:34;10.00;;;8.20;;
47155;SDS011;32908;52.344;16.858;2023-04-01T17:57:13;10.80;;;8.20;;
47155;SDS011;32908;52.344;16.858;2023-04-01T17:59:59;12.50;;;9.50;;
47155;SDS011;32908;52.344;16.858;2023-04-01T18:02:36;12.90;;;9.60;;
47155;SDS011;32908;52.344;16.858;2023-04-01T18:05:19;12.10;;;9.30;;
47155;SDS011;32908;52.344;16.858;2023-04-01T18:07:59;10.50;;;8.70;;
47155;SDS011;32908;52.344;16.858;2023-04-01T18:10:51;11.50;;;9.00;;
47155;SDS011;32908;52.344;16.858;2023-04-01T18:16:39;11.90;;;10.10;;
47155;SDS011;32908;52.344;16.858;2023-04-01T18:19:17;14.30;;;11.00;;
47155;SDS011;32908;52.344;16.858;2023-04-01T18:21:56;14.80;;;10.50;;
47155;SDS011;32908;52.344;16.858;2023-04-01T18:24:32;14.80;;;11.10;;
47155;SDS011;32908;52.344;16.858;2023-04-01T18:27:07;12.70;;;10.30;;
47155;SDS011;32908;52.344;16.858;2023-04-01T18:29:46;12.60;;;9.20;;
47155;SDS011;32908;52.344;16.858;2023-04-01T18:32:28;9.90;;;7.80;;
47155;SDS011;32908;52.344;16.858;2023-04-01T18:35:12;9.80;;;8.10;;
47155;SDS011;32908;52.344;16.858;2023-04-01T18:37:49;10.10;;;7.20;;
47155;SDS011;32908;52.344;16.858;2023-04-01T18:40:25;11.00;;;7.90;;
47155;SDS011;32908;52.344;16.858;2023-04-01T18:43:02;11.60;;;8.40;;
47155;SDS011;32908;52.344;16.858;2023-04-01T18:45:43;11.10;;;9.20;;
47155;SDS011;32908;52.344;16.858;2023-04-01T18:48:29;9.50;;;7.80;;
47155;SDS011;32908;52.344;16.858;2023-04-01T18:51:11;11.50;;;8.40;;
47155;SDS011;32908;52.344;16.858;2023-04-01T18:53:47;10.90;;;7.80;;
47155;SDS011;32908;52.344;16.858;2023-04-01T18:56:24;9.10;;;6.30;;
47155;SDS011;32908;52.344;16.858;2023-04-01T18:59:03;9.00;;;6.60;;
47155;SDS011;32908;52.344;16.858;2023-04-01T19:01:39;8.40;;;6.30;;
47155;SDS011;32908;52.344;16.858;2023-04-01T19:04:20;9.70;;;7.20;;
47155;SDS011;32908;52.344;16.858;2023-04-01T19:06:57;10.70;;;7.30;;